Terminal Aerodrome Forecast
Issued by NWS Sterling, VA

Current Version | Previous Version | Text Only | Print | Product List | Glossary Off
Versions: 1 2 3 4 5 6 7 8 9 10 11 12

000
FTUS41 KLWX 241743
TAFMRB
TAF
KMRB 241743Z 2418/2518 33006KT P6SM SCT045
     FM242200 27007KT P6SM VCTS SCT050CB
     FM250200 29006KT P6SM SCT050
     FM250600 32005KT P6SM FEW250
     FM251500 32008KT P6SM SCT050=

USA.gov is the U.S. government's official web portal to all federal, state and local government web resources and services.